Time;durP1;ratioP1;P1;durP2;ratioP2;P2;SDS_P1;SDS_P2;PMS_P1;PMS_P2;Temp;Humidity;BMP_temperature;BMP_pressure;BME280_temperature;BME280_humidity;BME280_pressure;Samples;Min_cycle;Max_cycle;Signal;HPM_P1;HPM_P2
2021/10/06 00:09:34;;;;;;;12.00;8.40;;;;;;;13.07;65.89;99316.30;461022;1190;141112;-60
2021/10/06 00:19:40;;;;;;;13.30;8.80;;;;;;;12.99;66.18;99318.96;474327;1190;142377;-61
2021/10/06 00:29:46;;;;;;;9.10;7.30;;;;;;;12.94;66.33;99316.36;476915;1190;141431;-62
2021/10/06 00:39:51;;;;;;;9.30;7.60;;;;;;;12.89;66.51;99327.10;473542;1191;142025;-61
2021/10/06 00:49:57;;;;;;;11.60;8.30;;;;;;;12.81;66.64;99337.23;477505;1191;145535;-61
2021/10/06 01:00:03;;;;;;;9.40;7.20;;;;;;;12.71;66.89;99342.18;476411;1191;141432;-61
2021/10/06 01:10:12;;;;;;;7.90;7.10;;;;;;;12.60;67.26;99345.32;477769;1190;142371;-61
2021/10/06 01:20:16;;;;;;;;;;;;;;;12.49;67.43;99342.25;473957;1190;141686;-61
2021/10/06 01:30:21;;;;;;;10.20;6.90;;;;;;;12.40;67.72;99344.17;474334;1190;128429;-61
2021/10/06 01:40:28;;;;;;;9.50;7.00;;;;;;;12.36;67.91;99347.13;477440;1190;141004;-61
2021/10/06 01:50:36;;;;;;;9.40;7.40;;;;;;;12.44;67.97;99347.92;476949;1190;141671;-62
2021/10/06 02:00:45;;;;;;;12.20;7.70;;;;;;;12.48;67.89;99341.87;474559;1190;142008;-60
2021/10/06 02:10:51;;;;;;;9.60;6.60;;;;;;;12.41;68.03;99348.00;473050;1190;142207;-61
2021/10/06 02:20:58;;;;;;;12.20;8.30;;;;;;;12.41;68.17;99348.17;466453;1190;144876;-61
2021/10/06 02:31:05;;;;;;;9.00;7.60;;;;;;;12.45;68.19;99352.81;470683;1190;141186;-60
2021/10/06 02:41:11;;;;;;;10.90;6.30;;;;;;;12.51;68.17;99353.20;466607;1190;141895;-60
2021/10/06 02:51:19;;;;;;;8.10;6.60;;;;;;;12.57;68.12;99353.61;477434;1191;141949;-61
2021/10/06 03:01:25;;;;;;;6.40;5.70;;;;;;;12.65;68.06;99356.02;477757;1190;142887;-61
2021/10/06 03:11:31;;;;;;;9.20;6.80;;;;;;;12.70;68.00;99368.68;461388;1190;142090;-63
2021/10/06 03:21:36;;;;;;;9.90;6.90;;;;;;;12.71;67.79;99373.99;477776;1190;140988;-61
2021/10/06 03:31:43;;;;;;;9.90;6.60;;;;;;;12.72;67.80;99378.14;477711;1190;141695;-61
2021/10/06 03:41:49;;;;;;;15.20;8.50;;;;;;;12.78;67.61;99381.95;462469;1190;142209;-62
2021/10/06 03:51:55;;;;;;;7.40;5.30;;;;;;;12.78;67.53;99391.39;470250;1190;142157;-60
2021/10/06 04:02:01;;;;;;;9.90;6.80;;;;;;;12.74;67.55;99400.85;477706;1183;141621;-61
2021/10/06 04:12:07;;;;;;;8.20;6.80;;;;;;;12.66;67.39;99410.89;476893;1190;142664;-62
2021/10/06 04:22:14;;;;;;;9.10;7.10;;;;;;;12.63;67.47;99420.42;477672;1190;142643;-62
2021/10/06 04:32:20;;;;;;;8.10;6.00;;;;;;;12.74;67.40;99424.91;476597;1190;141648;-62
2021/10/06 04:42:27;;;;;;;8.40;6.10;;;;;;;12.78;67.22;99431.46;462752;1190;141990;-60
2021/10/06 04:52:33;;;;;;;9.20;6.50;;;;;;;12.75;67.34;99435.16;461204;1190;193096;-60
2021/10/06 05:02:40;;;;;;;9.40;6.40;;;;;;;12.68;67.37;99435.54;476904;1190;193052;-61
2021/10/06 05:12:46;;;;;;;7.60;6.00;;;;;;;12.66;67.45;99432.15;477779;1190;142195;-61
2021/10/06 05:22:52;;;;;;;8.60;6.50;;;;;;;12.68;67.64;99449.55;477794;1190;142421;-61
2021/10/06 05:32:58;;;;;;;9.40;6.70;;;;;;;12.66;68.10;99493.59;466377;1191;145269;-62
2021/10/06 05:43:04;;;;;;;10.50;8.00;;;;;;;12.61;68.99;99504.90;470988;1190;141820;-61
2021/10/06 05:53:11;;;;;;;8.90;7.40;;;;;;;12.35;70.20;99502.50;465094;1191;141771;-62
2021/10/06 06:03:17;;;;;;;10.70;8.80;;;;;;;12.11;71.38;99509.01;477364;1191;144735;-62
2021/10/06 06:13:24;;;;;;;12.50;8.00;;;;;;;11.98;72.46;99521.84;472851;1190;141645;-61
2021/10/06 06:23:31;;;;;;;12.30;9.50;;;;;;;11.85;72.97;99526.06;475599;1191;142629;-62
2021/10/06 06:33:38;;;;;;;10.00;8.00;;;;;;;11.77;73.24;99513.06;477784;1190;141814;-61
2021/10/06 06:43:44;;;;;;;10.70;8.70;;;;;;;11.82;73.49;99522.62;477710;1190;141449;-62
2021/10/06 06:53:52;;;;;;;10.70;9.30;;;;;;;11.78;74.02;99540.42;476927;1190;141898;-63
2021/10/06 07:03:59;;;;;;;12.60;8.50;;;;;;;11.70;74.38;99545.16;477702;1190;143239;-62
2021/10/06 07:14:04;;;;;;;14.70;9.10;;;;;;;11.75;74.65;99571.14;477809;1190;141822;-67
2021/10/06 07:24:10;;;;;;;10.20;8.90;;;;;;;11.99;74.76;99577.39;474821;1190;183683;-61
2021/10/06 07:34:16;;;;;;;11.40;9.60;;;;;;;12.44;74.38;99579.98;461921;1187;145162;-70
2021/10/06 07:44:22;;;;;;;9.80;8.50;;;;;;;12.82;73.69;99598.19;469867;1183;141790;-63
2021/10/06 07:54:28;;;;;;;9.70;8.00;;;;;;;13.02;73.19;99604.61;475993;1190;141780;-63
2021/10/06 08:04:34;;;;;;;14.60;9.30;;;;;;;13.36;72.55;99620.02;477698;1190;140485;-65
2021/10/06 08:14:40;;;;;;;8.90;8.00;;;;;;;13.56;71.82;99619.25;476997;1190;141418;-63
2021/10/06 08:24:46;;;;;;;10.70;7.50;;;;;;;13.64;71.32;99625.17;477772;1190;141238;-60
2021/10/06 08:34:53;;;;;;;11.80;8.60;;;;;;;13.61;71.11;99640.37;469559;1190;10002778;-60
2021/10/06 08:45:01;;;;;;;10.10;9.20;;;;;;;13.44;71.22;99651.63;476809;1190;142430;-61
2021/10/06 08:55:10;;;;;;;10.00;8.90;;;;;;;13.28;71.55;99655.80;475648;1190;141845;-60
2021/10/06 09:05:22;;;;;;;12.10;9.90;;;;;;;13.06;71.85;99661.23;460565;1190;141703;-62
2021/10/06 09:15:40;;;;;;;11.50;8.60;;;;;;;12.87;72.19;99671.77;473703;1190;143856;-62
2021/10/06 09:25:50;;;;;;;9.60;8.50;;;;;;;12.77;72.58;99674.94;463205;1191;145164;-63
2021/10/06 09:36:11;;;;;;;12.70;9.10;;;;;;;12.71;72.80;99693.13;476723;1190;141479;-60
2021/10/06 09:46:18;;;;;;;9.20;8.20;;;;;;;12.60;73.05;99710.19;472984;1190;141819;-59
2021/10/06 09:56:25;;;;;;;13.10;9.40;;;;;;;12.66;73.21;99715.59;475347;1191;143613;-58
2021/10/06 10:06:31;;;;;;;13.80;9.10;;;;;;;12.83;73.15;99721.05;465879;1190;144529;-60
2021/10/06 10:16:39;;;;;;;10.70;9.60;;;;;;;12.92;73.18;99728.70;475025;1190;200844;-61
2021/10/06 10:27:00;;;;;;;10.40;8.80;;;;;;;12.87;73.30;99741.85;476696;1190;142952;-61
2021/10/06 10:37:06;;;;;;;11.20;9.60;;;;;;;12.89;73.69;99745.43;477593;1190;142224;-61
2021/10/06 10:47:12;;;;;;;12.20;9.50;;;;;;;13.05;73.69;99755.20;467727;1190;161778;-60
2021/10/06 10:57:25;;;;;;;11.40;10.30;;;;;;;12.93;73.77;99754.61;463295;1176;141031;-61
2021/10/06 11:07:31;;;;;;;12.80;9.90;;;;;;;12.70;74.17;99757.80;476688;1190;141119;-61
2021/10/06 11:17:57;;;;;;;12.10;10.00;;;;;;;12.73;74.49;99763.88;475968;1190;143117;-61
2021/10/06 11:28:05;;;;;;;11.30;9.70;;;;;;;12.69;74.81;99767.56;477566;1190;142948;-60
2021/10/06 11:38:12;;;;;;;13.00;11.70;;;;;;;12.60;75.19;99779.58;466944;1190;141493;-59
2021/10/06 11:48:22;;;;;;;14.20;11.00;;;;;;;12.64;75.50;99775.98;461111;1190;141971;-59
2021/10/06 11:58:40;;;;;;;15.80;12.50;;;;;;;12.86;75.81;99777.98;471815;1190;142761;-61
2021/10/06 12:08:46;;;;;;;12.60;11.20;;;;;;;13.07;75.90;99769.43;476136;1190;143381;-62
2021/10/06 12:19:03;;;;;;;14.70;13.00;;;;;;;13.25;75.80;99770.46;465577;1190;141998;-61
2021/10/06 12:29:09;;;;;;;13.40;11.70;;;;;;;13.09;75.91;99778.45;468158;1190;142630;-60
2021/10/06 12:39:18;;;;;;;13.60;12.20;;;;;;;13.00;76.15;99778.73;467874;1190;198182;-63
2021/10/06 12:49:24;;;;;;;16.00;12.60;;;;;;;12.96;76.27;99777.65;476375;1190;141687;-60
2021/10/06 12:59:37;;;;;;;17.10;14.10;;;;;;;12.95;76.42;99786.64;475818;1190;141183;-62
2021/10/06 13:09:44;;;;;;;13.20;11.90;;;;;;;12.98;76.73;99798.94;472138;1190;141720;-58
2021/10/06 13:19:50;;;;;;;15.10;12.70;;;;;;;12.97;76.90;99802.12;471018;1190;142376;-62
2021/10/06 13:29:57;;;;;;;16.60;14.70;;;;;;;12.90;76.92;99811.59;476876;1190;142200;-59
2021/10/06 13:40:04;;;;;;;16.80;13.60;;;;;;;12.76;77.02;99817.67;477714;1190;142396;-59
2021/10/06 13:50:11;;;;;;;12.60;11.40;;;;;;;12.66;77.09;99821.00;473809;1190;142172;-65
2021/10/06 14:00:17;;;;;;;17.00;12.30;;;;;;;12.43;77.24;99836.55;477573;1190;142422;-60
2021/10/06 14:10:24;;;;;;;13.60;12.10;;;;;;;12.20;77.70;99839.34;477752;1190;141994;-59
2021/10/06 14:20:30;;;;;;;16.70;13.50;;;;;;;12.09;78.01;99846.59;476470;1190;142391;-60
2021/10/06 14:30:39;;;;;;;16.70;13.50;;;;;;;12.07;78.19;99860.59;461765;1190;20002735;-58
2021/10/06 14:40:45;;;;;;;16.60;14.80;;;;;;;12.11;77.99;99868.20;476914;1190;192386;-59
2021/10/06 14:50:52;;;;;;;15.80;14.10;;;;;;;12.16;77.79;99874.20;474252;1190;141470;-58
2021/10/06 15:00:58;;;;;;;18.30;13.60;;;;;;;11.95;78.31;99879.35;471754;1190;195665;-57
2021/10/06 15:11:04;;;;;;;15.80;14.00;;;;;;;11.82;78.72;99887.57;477747;1190;142371;-59
2021/10/06 15:21:10;;;;;;;16.50;14.90;;;;;;;11.71;79.14;99898.05;476926;1190;142469;-58
2021/10/06 15:31:17;;;;;;;15.20;13.70;;;;;;;11.67;79.42;99903.60;477691;1190;142121;-58
2021/10/06 15:41:23;;;;;;;17.70;14.00;;;;;;;11.63;79.75;99904.35;473492;1190;143070;-59
2021/10/06 15:51:30;;;;;;;22.40;15.70;;;;;;;11.59;79.98;99909.00;467159;1190;143487;-60
2021/10/06 16:01:36;;;;;;;18.80;16.70;;;;;;;11.55;80.22;99919.94;461559;1191;140867;-58
2021/10/06 16:11:43;;;;;;;19.50;17.40;;;;;;;11.48;80.39;99924.92;474794;1191;142586;-67
2021/10/06 16:21:50;;;;;;;17.20;15.40;;;;;;;11.44;80.57;99924.14;462235;1190;141380;-61
2021/10/06 16:31:56;;;;;;;20.90;17.30;;;;;;;11.45;80.77;99936.67;461086;1191;142379;-66
2021/10/06 16:42:03;;;;;;;21.20;18.20;;;;;;;11.46;80.82;99945.41;465544;1191;141605;-63
2021/10/06 16:52:18;;;;;;;23.80;18.20;;;;;;;11.50;80.90;99953.40;472794;1190;143056;-60
2021/10/06 17:02:24;;;;;;;26.90;19.50;;;;;;;11.52;80.98;99959.22;465070;1191;141302;-61
2021/10/06 17:12:30;;;;;;;28.50;21.80;;;;;;;11.51;81.07;99961.95;477635;1190;140906;-62
2021/10/06 17:22:45;;;;;;;23.90;18.50;;;;;;;11.51;81.08;99968.02;477293;1191;142365;-63
2021/10/06 17:32:52;;;;;;;21.60;18.10;;;;;;;11.50;81.15;99978.79;475781;1190;143105;-63
2021/10/06 17:43:04;;;;;;;24.20;18.40;;;;;;;11.49;81.22;99986.94;472215;1190;141138;-61
2021/10/06 17:53:11;;;;;;;20.50;17.30;;;;;;;11.48;81.31;99993.27;462577;1190;10002043;-64
2021/10/06 18:03:17;;;;;;;18.40;16.10;;;;;;;11.46;81.36;99998.19;474085;1190;198703;-64
2021/10/06 18:13:26;;;;;;;19.30;15.20;;;;;;;11.45;81.36;100001.02;472731;1191;142508;-64
2021/10/06 18:23:32;;;;;;;19.00;17.00;;;;;;;11.44;81.49;100005.86;460935;1192;141653;-64
2021/10/06 18:33:44;;;;;;;26.30;21.90;;;;;;;11.44;81.72;100010.42;460509;1192;143805;-61
2021/10/06 18:43:51;;;;;;;28.10;23.90;;;;;;;11.43;81.92;100012.72;460821;1182;141330;-62
2021/10/06 18:53:57;;;;;;;31.40;28.00;;;;;;;11.41;82.00;100020.58;460684;1190;141687;-62
2021/10/06 19:04:04;;;;;;;28.50;23.10;;;;;;;11.36;82.02;100026.27;468861;1191;142512;-64
2021/10/06 19:14:09;;;;;;;23.40;19.70;;;;;;;11.31;82.09;100029.02;462269;1192;142025;-62
2021/10/06 19:24:16;;;;;;;27.60;21.80;;;;;;;11.27;81.97;100034.89;463013;1190;142574;-65
2021/10/06 19:34:28;;;;;;;22.50;18.90;;;;;;;11.22;81.83;100041.64;477758;1190;142874;-64
2021/10/06 19:44:35;;;;;;;19.20;17.10;;;;;;;11.19;81.74;100051.11;472571;1191;141036;-63
2021/10/06 19:54:41;;;;;;;21.60;18.30;;;;;;;11.15;81.71;100059.77;477771;1190;141379;-64
2021/10/06 20:04:48;;;;;;;20.90;16.30;;;;;;;11.11;81.71;100066.84;467675;1190;142254;-61
2021/10/06 20:14:55;;;;;;;19.30;16.70;;;;;;;11.06;81.65;100069.59;460471;1190;142137;-63
2021/10/06 20:25:01;;;;;;;24.50;17.40;;;;;;;10.98;81.72;100067.77;462826;1190;196627;-62
2021/10/06 20:35:18;;;;;;;19.50;15.50;;;;;;;10.88;81.60;100057.44;460574;1178;142263;-63
2021/10/06 20:45:24;;;;;;;17.60;15.60;;;;;;;10.79;81.69;100063.41;467672;1190;10001792;-63
2021/10/06 20:55:31;;;;;;;22.90;16.90;;;;;;;10.72;81.62;100068.16;474742;1190;142138;-62
2021/10/06 21:05:38;;;;;;;20.70;15.50;;;;;;;10.71;81.62;100074.20;476937;1190;141937;-62
2021/10/06 21:15:44;;;;;;;16.80;13.90;;;;;;;10.72;81.60;100078.55;477776;1190;141959;-61
2021/10/06 21:25:51;;;;;;;15.90;13.70;;;;;;;10.71;81.36;100081.71;474427;1190;141833;-59
2021/10/06 21:35:57;;;;;;;16.50;13.90;;;;;;;10.66;81.15;100085.84;463067;1191;146242;-60
2021/10/06 21:46:03;;;;;;;19.20;13.60;;;;;;;10.59;81.14;100080.48;477780;1190;141611;-61
2021/10/06 21:56:11;;;;;;;16.30;13.70;;;;;;;10.52;81.14;100073.35;477520;1191;142971;-60
2021/10/06 22:06:17;;;;;;;23.30;13.60;;;;;;;10.44;81.24;100066.59;477578;1190;144203;-62
2021/10/06 22:16:22;;;;;;;16.70;14.10;;;;;;;10.42;81.41;100073.50;477836;1190;141410;-61
2021/10/06 22:26:28;;;;;;;15.70;13.60;;;;;;;10.42;81.35;100083.13;477014;1190;142574;-61
2021/10/06 22:36:34;;;;;;;16.20;13.20;;;;;;;10.44;81.45;100084.08;477689;1190;141359;-60
2021/10/06 22:46:40;;;;;;;16.20;13.20;;;;;;;10.49;81.44;100091.72;473622;1191;141587;-60
2021/10/06 22:56:47;;;;;;;17.20;12.10;;;;;;;10.54;81.30;100097.53;467149;1190;146290;-61
2021/10/06 23:06:53;;;;;;;16.40;12.60;;;;;;;10.56;81.06;100104.77;477850;1184;142331;-63
2021/10/06 23:16:59;;;;;;;20.40;13.00;;;;;;;10.59;80.97;100104.98;477777;1190;142032;-62
2021/10/06 23:27:05;;;;;;;20.00;13.40;;;;;;;10.58;80.84;100107.81;477056;1190;142560;-63
2021/10/06 23:37:11;;;;;;;18.70;12.10;;;;;;;10.57;80.66;100115.94;477799;1190;142572;-62
2021/10/06 23:47:17;;;;;;;16.70;12.70;;;;;;;10.59;80.52;100130.55;476974;1190;142326;-61
2021/10/06 23:57:22;;;;;;;17.40;11.70;;;;;;;10.58;80.37;100141.11;477865;1190;142174;-61
